createdAt,value
2023-05-05T00:01:50.181Z,10.78
2023-05-05T00:04:33.967Z,10.86
2023-05-05T00:07:17.914Z,10.87
2023-05-05T00:10:01.965Z,10.95
2023-05-05T00:12:47.904Z,11.04
2023-05-05T00:15:31.863Z,11.04
2023-05-05T00:18:18.412Z,10.95
2023-05-05T00:21:02.436Z,10.91
2023-05-05T00:23:46.454Z,10.67
2023-05-05T00:26:30.427Z,10.82
2023-05-05T00:29:14.296Z,10.69
2023-05-05T00:31:58.061Z,10.70
2023-05-05T00:34:43.234Z,10.85
2023-05-05T00:37:27.185Z,10.91
2023-05-05T00:40:12.126Z,10.56
2023-05-05T00:42:56.310Z,10.59
2023-05-05T00:45:42.943Z,10.62
2023-05-05T00:48:26.919Z,10.78
2023-05-05T00:51:13.010Z,10.54
2023-05-05T00:53:57.201Z,10.65
2023-05-05T00:56:41.071Z,10.78
2023-05-05T00:59:25.112Z,10.77
2023-05-05T01:02:08.890Z,10.85
2023-05-05T01:04:53.035Z,10.83
2023-05-05T01:07:49.676Z,10.46
2023-05-05T01:10:39.756Z,10.80
2023-05-05T01:13:33.901Z,10.83
2023-05-05T01:16:22.250Z,11.18
2023-05-05T01:19:25.906Z,11.21
2023-05-05T01:22:13.210Z,11.38
2023-05-05T01:25:21.548Z,11.85
2023-05-05T01:28:17.931Z,11.88
2023-05-05T01:31:19.270Z,11.57
2023-05-05T01:34:08.813Z,11.78
2023-05-05T01:36:59.892Z,11.66
2023-05-05T01:39:46.233Z,11.88
2023-05-05T01:42:32.227Z,12.10
2023-05-05T01:45:19.289Z,12.29
2023-05-05T01:48:06.669Z,12.26
2023-05-05T01:50:54.629Z,11.99
2023-05-05T01:53:41.643Z,12.01
2023-05-05T01:56:27.771Z,11.86
2023-05-05T01:59:12.815Z,12.03
2023-05-05T02:01:58.494Z,12.12
2023-05-05T02:04:45.140Z,12.03
2023-05-05T02:07:32.806Z,11.70
2023-05-05T02:10:17.193Z,11.34
2023-05-05T02:13:03.009Z,11.23
2023-05-05T02:15:48.177Z,11.48
2023-05-05T02:18:35.910Z,11.57
2023-05-05T02:21:20.749Z,11.50
2023-05-05T02:24:07.125Z,11.45
2023-05-05T02:26:53.322Z,11.63
2023-05-05T02:29:40.675Z,11.62
2023-05-05T02:32:33.337Z,11.63
2023-05-05T02:35:22.944Z,11.50
2023-05-05T02:38:10.157Z,11.57
2023-05-05T02:41:00.904Z,11.12
2023-05-05T02:43:47.574Z,11.27
2023-05-05T02:46:32.788Z,11.29
2023-05-05T02:49:16.922Z,11.26
2023-05-05T02:52:02.357Z,11.32
2023-05-05T02:54:51.353Z,11.30
2023-05-05T02:57:42.239Z,10.89
2023-05-05T03:00:35.890Z,10.99
2023-05-05T03:03:27.565Z,11.11
2023-05-05T03:06:16.559Z,10.66
2023-05-05T03:09:08.756Z,10.86
2023-05-05T03:12:00.969Z,10.98
2023-05-05T03:14:48.726Z,10.82
2023-05-05T03:17:36.901Z,10.60
2023-05-05T03:20:23.248Z,10.75
2023-05-05T03:23:08.834Z,10.77
2023-05-05T03:25:53.835Z,11.05
2023-05-05T03:28:45.789Z,10.93
2023-05-05T03:31:37.434Z,10.16
2023-05-05T03:34:21.494Z,10.29
2023-05-05T03:37:06.109Z,10.98
2023-05-05T03:39:50.405Z,11.26
2023-05-05T03:42:34.877Z,11.27
2023-05-05T03:45:19.013Z,11.42
2023-05-05T03:48:04.364Z,11.19
2023-05-05T03:50:49.529Z,11.57
2023-05-05T03:53:35.525Z,11.55
2023-05-05T03:56:22.809Z,11.65
2023-05-05T03:59:08.880Z,12.02
2023-05-05T04:01:52.789Z,11.84
2023-05-05T04:04:37.909Z,12.15
2023-05-05T04:07:22.924Z,12.40
2023-05-05T04:10:08.640Z,12.13
2023-05-05T04:12:52.717Z,12.34
2023-05-05T04:15:36.648Z,12.66
2023-05-05T04:18:20.530Z,12.25
2023-05-05T04:21:06.154Z,12.51
2023-05-05T04:23:50.391Z,13.05
2023-05-05T04:26:34.406Z,12.98
2023-05-05T04:29:18.841Z,12.58
2023-05-05T04:32:02.732Z,12.26
2023-05-05T04:34:47.099Z,12.61
2023-05-05T04:37:32.692Z,12.91
2023-05-05T04:40:16.901Z,12.71
2023-05-05T04:43:00.769Z,12.78
2023-05-05T04:45:53.948Z,12.60
2023-05-05T04:48:39.835Z,13.10
2023-05-05T04:51:24.534Z,12.83
2023-05-05T04:54:09.834Z,13.17
2023-05-05T04:56:54.065Z,12.25
2023-05-05T04:59:37.849Z,12.45
2023-05-05T05:02:21.690Z,12.80
2023-05-05T05:05:07.705Z,13.17
2023-05-05T05:07:51.469Z,13.36
2023-05-05T05:10:36.643Z,12.90
2023-05-05T05:13:20.632Z,13.01
2023-05-05T05:16:04.663Z,13.18
2023-05-05T05:18:48.653Z,12.88
2023-05-05T05:21:32.836Z,13.22
2023-05-05T05:24:17.013Z,13.16
2023-05-05T05:27:02.874Z,12.86
2023-05-05T05:29:46.698Z,13.45
2023-05-05T05:32:30.785Z,13.29
2023-05-05T05:35:14.807Z,13.50
2023-05-05T05:37:58.808Z,13.10
2023-05-05T05:40:42.544Z,13.24
2023-05-05T05:43:27.791Z,13.37
2023-05-05T05:46:12.635Z,13.52
2023-05-05T05:48:57.837Z,13.84
2023-05-05T05:51:42.084Z,13.95
2023-05-05T05:54:25.834Z,14.31
2023-05-05T05:57:09.998Z,14.94
2023-05-05T05:59:55.457Z,15.31
2023-05-05T06:02:40.450Z,14.93
2023-05-05T06:05:28.099Z,14.35
2023-05-05T06:08:11.788Z,14.10
2023-05-05T06:11:01.910Z,14.15
2023-05-05T06:13:46.575Z,14.16
2023-05-05T06:16:31.837Z,13.82
2023-05-05T06:19:19.755Z,14.46
2023-05-05T06:22:03.558Z,14.53
2023-05-05T06:24:47.512Z,15.56
2023-05-05T06:27:31.990Z,14.93
2023-05-05T06:30:15.957Z,15.03
2023-05-05T06:33:02.486Z,14.28
2023-05-05T06:35:47.858Z,14.06
2023-05-05T06:38:31.740Z,14.39
2023-05-05T06:41:15.519Z,14.45
2023-05-05T06:43:59.368Z,15.06
2023-05-05T06:46:43.828Z,15.17
2023-05-05T06:49:29.147Z,15.51
2023-05-05T06:52:13.011Z,16.28
2023-05-05T06:54:56.969Z,16.50
2023-05-05T06:57:40.961Z,15.04
2023-05-05T07:00:25.266Z,15.79
2023-05-05T07:03:09.300Z,16.71
2023-05-05T07:05:55.073Z,16.12
2023-05-05T07:08:38.850Z,17.33
2023-05-05T07:11:22.785Z,18.36
2023-05-05T07:14:06.683Z,18.56
2023-05-05T07:16:50.482Z,17.65
2023-05-05T07:19:34.210Z,16.86
2023-05-05T07:22:19.410Z,17.29
2023-05-05T07:25:03.927Z,17.50
2023-05-05T07:27:47.784Z,17.68
2023-05-05T07:30:31.682Z,17.33
2023-05-05T07:33:15.916Z,17.33
2023-05-05T07:35:59.794Z,17.92
2023-05-05T07:38:44.980Z,17.84
2023-05-05T07:41:28.705Z,16.57
2023-05-05T07:44:12.695Z,16.43
2023-05-05T07:46:56.454Z,17.05
2023-05-05T07:49:40.299Z,17.39
2023-05-05T07:52:37.004Z,18.06
2023-05-05T07:55:29.613Z,17.29
2023-05-05T07:58:13.678Z,17.51
2023-05-05T08:00:57.546Z,18.03
2023-05-05T08:03:41.518Z,17.80
2023-05-05T08:06:25.494Z,18.49
2023-05-05T08:09:09.606Z,18.98
2023-05-05T08:11:54.754Z,19.45
2023-05-05T08:14:38.539Z,20.37
2023-05-05T08:17:22.414Z,20.12
2023-05-05T08:20:07.143Z,18.43
2023-05-05T08:22:53.451Z,18.02
2023-05-05T08:25:37.390Z,17.61
2023-05-05T08:28:23.083Z,17.35
2023-05-05T08:31:07.308Z,18.38
2023-05-05T08:33:51.169Z,18.46
2023-05-05T08:36:35.106Z,18.56
2023-05-05T08:39:19.019Z,18.26
2023-05-05T08:42:03.110Z,18.80
2023-05-05T08:44:48.455Z,19.01
2023-05-05T08:47:32.518Z,19.06
2023-05-05T08:50:20.425Z,18.91
2023-05-05T08:53:11.992Z,18.79
2023-05-05T08:55:57.636Z,18.94
2023-05-05T08:58:43.039Z,18.66
2023-05-05T09:01:29.010Z,19.14
2023-05-05T09:04:12.804Z,19.35
2023-05-05T09:06:59.234Z,18.75
2023-05-05T09:09:43.624Z,18.51
2023-05-05T09:12:31.766Z,19.39
2023-05-05T09:15:16.458Z,19.69
2023-05-05T09:18:02.617Z,19.15
2023-05-05T09:20:46.464Z,19.52
2023-05-05T09:23:30.328Z,18.93
2023-05-05T09:26:14.723Z,18.40
2023-05-05T09:28:58.722Z,18.26
2023-05-05T09:31:42.607Z,19.47
2023-05-05T09:34:28.499Z,19.13
2023-05-05T09:37:12.337Z,20.06
2023-05-05T09:39:56.764Z,20.18
2023-05-05T09:42:41.803Z,20.96
2023-05-05T09:45:27.878Z,20.53
2023-05-05T09:48:25.817Z,21.29
2023-05-05T09:51:11.563Z,21.51
2023-05-05T09:53:55.596Z,22.00
2023-05-05T09:56:40.541Z,20.89
2023-05-05T09:59:24.748Z,20.41
2023-05-05T10:02:13.236Z,19.89
2023-05-05T10:05:06.435Z,19.77
2023-05-05T10:07:52.177Z,19.54
2023-05-05T10:10:37.670Z,20.57
2023-05-05T10:13:23.132Z,20.75
2023-05-05T10:16:10.443Z,21.67
2023-05-05T10:18:54.523Z,22.13
2023-05-05T10:21:42.174Z,21.13
2023-05-05T10:24:38.660Z,21.54
2023-05-05T10:27:25.448Z,21.32
2023-05-05T10:30:14.385Z,21.42
2023-05-05T10:33:18.578Z,21.37
2023-05-05T10:36:09.212Z,21.56
2023-05-05T10:38:57.633Z,21.84
2023-05-05T10:41:43.227Z,21.73
2023-05-05T10:44:28.606Z,21.82
2023-05-05T10:47:13.342Z,21.32
2023-05-05T10:50:03.947Z,21.26
2023-05-05T10:52:57.906Z,21.30
2023-05-05T10:55:47.647Z,21.46
2023-05-05T10:58:51.020Z,20.92
2023-05-05T11:01:40.417Z,22.24
2023-05-05T11:04:25.346Z,21.92
2023-05-05T11:07:26.118Z,21.78
2023-05-05T11:10:11.826Z,22.03
2023-05-05T11:13:21.455Z,22.49
2023-05-05T11:16:27.772Z,22.60
2023-05-05T11:19:48.379Z,21.18
2023-05-05T11:22:32.432Z,21.46
2023-05-05T11:25:51.410Z,22.19
2023-05-05T11:28:35.214Z,22.23
2023-05-05T11:31:21.171Z,22.27
2023-05-05T11:34:29.319Z,22.42
2023-05-05T11:37:13.575Z,22.79
2023-05-05T11:40:05.590Z,22.62
2023-05-05T11:42:49.691Z,22.19
2023-05-05T11:45:33.735Z,21.46
2023-05-05T11:48:28.498Z,21.92
2023-05-05T11:51:13.442Z,22.78
2023-05-05T11:53:59.061Z,22.65
2023-05-05T11:56:51.559Z,22.95
2023-05-05T11:59:37.478Z,23.54
2023-05-05T12:02:22.863Z,23.15
2023-05-05T12:05:09.004Z,22.10
2023-05-05T12:07:59.658Z,21.48
2023-05-05T12:10:43.680Z,21.00
2023-05-05T12:13:28.259Z,20.42
2023-05-05T12:16:13.017Z,20.76
2023-05-05T12:19:05.856Z,21.57
2023-05-05T12:21:54.289Z,22.61
2023-05-05T12:24:38.212Z,21.32
2023-05-05T12:27:22.037Z,20.37
2023-05-05T12:30:17.470Z,20.10
2023-05-05T12:33:05.597Z,20.56
2023-05-05T12:35:49.838Z,20.66
2023-05-05T12:38:35.026Z,20.50
2023-05-05T12:41:21.378Z,20.61
2023-05-05T12:44:05.567Z,21.00
2023-05-05T12:46:53.111Z,21.55
2023-05-05T12:49:47.528Z,20.86
2023-05-05T12:52:43.580Z,20.81
2023-05-05T12:55:39.933Z,20.88
2023-05-05T12:58:24.025Z,20.48
2023-05-05T13:01:11.607Z,20.37
2023-05-05T13:04:10.787Z,20.54
2023-05-05T13:07:10.968Z,20.71
2023-05-05T13:10:09.085Z,20.06
2023-05-05T13:12:56.829Z,20.32
2023-05-05T13:15:41.168Z,20.49
2023-05-05T13:18:25.289Z,21.03
2023-05-05T13:21:09.113Z,21.62
2023-05-05T13:23:53.421Z,21.18
2023-05-05T13:26:38.002Z,20.93
2023-05-05T13:29:26.117Z,21.19
2023-05-05T13:32:11.379Z,22.37
2023-05-05T13:34:55.337Z,22.81
2023-05-05T13:37:39.208Z,22.57
2023-05-05T13:40:25.644Z,22.67
2023-05-05T13:43:09.871Z,21.93
2023-05-05T13:46:02.872Z,21.26
2023-05-05T13:48:56.597Z,20.96
2023-05-05T13:51:41.052Z,21.43
2023-05-05T13:54:25.235Z,21.55
2023-05-05T13:57:11.335Z,21.18
2023-05-05T13:59:55.351Z,21.16
2023-05-05T14:05:24.999Z,20.16
2023-05-05T14:08:09.064Z,20.25
2023-05-05T14:10:53.111Z,20.60
2023-05-05T14:13:37.341Z,21.14
2023-05-05T14:16:21.491Z,20.89
2023-05-05T14:19:06.996Z,20.58
2023-05-05T14:21:51.197Z,20.45
2023-05-05T14:24:35.219Z,20.78
2023-05-05T14:27:19.371Z,20.71
2023-05-05T14:30:03.538Z,21.06
2023-05-05T14:32:49.592Z,21.18
2023-05-05T14:35:35.074Z,21.37
2023-05-05T14:38:19.176Z,21.34
2023-05-05T14:41:03.288Z,21.08
2023-05-05T14:43:47.335Z,20.47
2023-05-05T14:46:31.919Z,20.33
2023-05-05T14:49:16.216Z,20.37
2023-05-05T14:52:01.731Z,20.41
2023-05-05T14:54:46.831Z,20.95
2023-05-05T14:57:32.303Z,21.43
2023-05-05T15:00:17.123Z,21.46
2023-05-05T15:03:01.244Z,21.78
2023-05-05T15:05:45.603Z,21.36
2023-05-05T15:08:31.097Z,21.13
2023-05-05T15:11:15.155Z,21.18
2023-05-05T15:13:59.181Z,21.56
2023-05-05T15:16:43.345Z,21.09
2023-05-05T15:19:27.424Z,20.90
2023-05-05T15:22:11.456Z,21.02
2023-05-05T15:24:56.846Z,20.83
2023-05-05T15:27:40.996Z,20.66
2023-05-05T15:30:25.141Z,20.96
2023-05-05T15:33:09.203Z,21.34
2023-05-05T15:35:53.162Z,21.26
2023-05-05T15:38:42.971Z,20.56
2023-05-05T15:41:29.650Z,20.55
2023-05-05T15:44:13.728Z,20.47
2023-05-05T15:46:57.990Z,20.45
2023-05-05T15:49:42.011Z,20.02
2023-05-05T15:52:25.885Z,19.92
2023-05-05T15:55:11.386Z,19.99
2023-05-05T15:57:56.994Z,20.15
2023-05-05T16:00:42.022Z,19.74
2023-05-05T16:03:26.307Z,19.62
2023-05-05T16:06:13.008Z,19.81
2023-05-05T16:08:58.857Z,19.50
2023-05-05T16:11:42.981Z,19.74
2023-05-05T16:14:29.073Z,19.60
2023-05-05T16:17:13.211Z,19.69
2023-05-05T16:19:57.278Z,19.74
2023-05-05T16:22:41.362Z,19.95
2023-05-05T16:25:25.539Z,19.39
2023-05-05T16:28:09.854Z,19.50
2023-05-05T16:30:55.242Z,19.70
2023-05-05T16:33:41.239Z,19.45
2023-05-05T16:36:25.332Z,19.40
2023-05-05T16:39:12.326Z,19.11
2023-05-05T16:41:56.535Z,19.13
2023-05-05T16:44:42.847Z,19.01
2023-05-05T16:47:28.522Z,19.11
2023-05-05T16:50:15.880Z,19.06
2023-05-05T16:53:03.023Z,19.09
2023-05-05T16:55:48.797Z,19.01
2023-05-05T16:58:35.972Z,19.08
2023-05-05T17:01:22.188Z,18.81
2023-05-05T17:04:11.245Z,18.43
2023-05-05T17:06:57.626Z,18.04
2023-05-05T17:09:41.668Z,17.91
2023-05-05T17:12:25.992Z,17.86
2023-05-05T17:15:12.287Z,17.87
2023-05-05T17:17:57.641Z,17.51
2023-05-05T17:20:43.307Z,17.22
2023-05-05T17:23:30.113Z,16.68
2023-05-05T17:26:24.532Z,17.11
2023-05-05T17:29:09.666Z,16.79
2023-05-05T17:31:57.129Z,16.97
2023-05-05T17:34:41.429Z,17.13
2023-05-05T17:37:28.864Z,17.07
2023-05-05T17:40:13.384Z,17.05
2023-05-05T17:42:57.517Z,16.84
2023-05-05T17:45:44.637Z,16.80
2023-05-05T17:48:31.863Z,16.73
2023-05-05T17:51:18.003Z,16.55
2023-05-05T17:54:06.223Z,16.43
2023-05-05T17:56:50.247Z,16.31
2023-05-05T17:59:34.279Z,16.23
2023-05-05T18:02:19.391Z,16.29
2023-05-05T18:05:03.669Z,16.03
2023-05-05T18:07:50.033Z,15.96
2023-05-05T18:10:35.558Z,15.93
2023-05-05T18:13:20.233Z,15.79
2023-05-05T18:16:04.564Z,15.67
2023-05-05T18:18:48.780Z,15.65
2023-05-05T18:24:33.306Z,15.54
2023-05-05T18:27:21.273Z,15.47
2023-05-05T18:30:06.471Z,15.31
2023-05-05T18:32:54.442Z,15.30
2023-05-05T18:35:43.325Z,15.18
2023-05-05T18:38:29.365Z,15.28
2023-05-05T18:41:15.098Z,15.23
2023-05-05T18:46:58.420Z,15.22
2023-05-05T18:49:45.314Z,15.33
2023-05-05T18:52:32.295Z,15.16
2023-05-05T18:55:16.646Z,15.18
2023-05-05T18:58:03.607Z,15.04
2023-05-05T19:00:49.211Z,15.18
2023-05-05T19:03:48.955Z,15.04
2023-05-05T19:06:33.122Z,14.96
2023-05-05T19:09:19.967Z,14.83
2023-05-05T19:12:04.312Z,14.91
2023-05-05T19:14:50.379Z,14.77
2023-05-05T19:17:38.736Z,14.68
2023-05-05T19:20:23.328Z,14.63
2023-05-05T19:23:07.445Z,14.69
2023-05-05T19:25:55.994Z,14.25
2023-05-05T19:28:42.788Z,14.60
2023-05-05T19:31:30.915Z,14.42
2023-05-05T19:34:16.559Z,14.33
2023-05-05T19:37:02.438Z,14.47
2023-05-05T19:39:46.532Z,14.53
2023-05-05T19:42:35.617Z,14.36
2023-05-05T19:45:22.801Z,14.50
2023-05-05T19:48:09.596Z,14.41
2023-05-05T19:51:00.457Z,14.62
2023-05-05T19:53:50.736Z,14.40
2023-05-05T19:56:39.566Z,14.27
2023-05-05T19:59:31.248Z,14.24
2023-05-05T20:02:17.278Z,14.21
2023-05-05T20:05:01.399Z,13.96
2023-05-05T20:07:51.503Z,13.79
2023-05-05T20:10:38.944Z,13.78
2023-05-05T20:13:23.327Z,13.71
2023-05-05T20:16:08.507Z,13.57
2023-05-05T20:18:54.860Z,13.40
2023-05-05T20:21:39.008Z,13.08
2023-05-05T20:24:28.712Z,13.36
2023-05-05T20:27:14.573Z,13.42
2023-05-05T20:30:05.263Z,13.57
2023-05-05T20:32:51.977Z,13.67
2023-05-05T20:35:36.217Z,13.59
2023-05-05T20:38:20.311Z,13.80
2023-05-05T20:41:06.133Z,13.75
2023-05-05T20:43:50.354Z,13.80
2023-05-05T20:46:39.862Z,14.00
2023-05-05T20:49:26.510Z,13.98
2023-05-05T20:52:10.533Z,13.73
2023-05-05T20:54:54.665Z,13.85
2023-05-05T20:57:40.358Z,13.79
2023-05-05T21:00:24.804Z,13.62
2023-05-05T21:03:09.139Z,13.69
2023-05-05T21:05:55.067Z,13.98
2023-05-05T21:08:42.333Z,14.02
2023-05-05T21:11:26.518Z,13.82
2023-05-05T21:14:13.094Z,13.83
2023-05-05T21:16:57.555Z,13.78
2023-05-05T21:19:41.799Z,13.40
2023-05-05T21:22:28.915Z,13.38
2023-05-05T21:25:15.819Z,13.07
2023-05-05T21:28:03.697Z,13.41
2023-05-05T21:31:10.261Z,13.20
2023-05-05T21:33:56.668Z,13.27
2023-05-05T21:36:43.085Z,13.29
2023-05-05T21:39:27.223Z,13.02
2023-05-05T21:42:11.212Z,12.79
2023-05-05T21:44:56.796Z,12.57
2023-05-05T21:47:42.408Z,12.89
2023-05-05T21:50:27.674Z,13.01
2023-05-05T21:53:13.510Z,12.95
2023-05-05T21:55:57.624Z,12.98
2023-05-05T21:58:41.888Z,13.03
2023-05-05T22:01:28.854Z,13.25
2023-05-05T22:04:14.310Z,13.20
2023-05-05T22:07:06.945Z,13.05
2023-05-05T22:09:52.090Z,12.75
2023-05-05T22:12:36.214Z,12.91
2023-05-05T22:15:20.558Z,12.60
2023-05-05T22:18:04.807Z,12.77
2023-05-05T22:20:50.222Z,12.62
2023-05-05T22:23:34.266Z,12.70
2023-05-05T22:26:18.214Z,12.66
2023-05-05T22:29:02.321Z,12.55
2023-05-05T22:31:46.546Z,12.48
2023-05-05T22:34:30.538Z,12.68
2023-05-05T22:37:16.475Z,12.62
2023-05-05T22:40:00.589Z,12.83
2023-05-05T22:42:44.737Z,12.76
2023-05-05T22:45:30.329Z,12.70
2023-05-05T22:48:14.468Z,12.79
2023-05-05T22:50:58.550Z,12.43
2023-05-05T22:53:43.928Z,12.45
2023-05-05T22:56:27.667Z,11.93
2023-05-05T22:59:11.720Z,12.00
2023-05-05T23:01:55.915Z,11.86
2023-05-05T23:04:39.997Z,12.10
2023-05-05T23:07:24.049Z,12.21
2023-05-05T23:10:10.251Z,12.19
2023-05-05T23:12:54.219Z,12.18
2023-05-05T23:15:38.466Z,12.29
2023-05-05T23:18:22.434Z,12.27
2023-05-05T23:21:06.372Z,12.37
2023-05-05T23:23:50.184Z,12.38
2023-05-05T23:26:35.650Z,12.44
2023-05-05T23:29:19.598Z,12.42
2023-05-05T23:32:03.429Z,12.42
2023-05-05T23:34:47.381Z,12.46
2023-05-05T23:37:31.244Z,12.37
2023-05-05T23:40:15.041Z,12.34
2023-05-05T23:43:00.319Z,12.30
2023-05-05T23:45:44.064Z,12.06
2023-05-05T23:48:27.850Z,12.15
2023-05-05T23:51:11.938Z,12.00
2023-05-05T23:53:57.599Z,12.14
2023-05-05T23:56:42.680Z,12.14
2023-05-05T23:59:27.800Z,12.20
